sensor_id;sensor_type;location;lat;lon;timestamp;P1;durP1;ratioP1;P2;durP2;ratioP2
75718;SDS011;64340;48.534;-3.036;2023-08-21T13:14:26;121.20;;;37.88;;
75718;SDS011;64340;48.534;-3.036;2023-08-21T13:16:52;111.68;;;35.03;;
75718;SDS011;64340;48.534;-3.036;2023-08-21T13:19:18;110.55;;;38.13;;
75718;SDS011;64340;48.534;-3.036;2023-08-21T13:21:44;114.63;;;37.40;;
75718;SDS011;64340;48.534;-3.036;2023-08-21T13:24:10;115.35;;;37.15;;
75718;SDS011;64340;48.534;-3.036;2023-08-21T13:26:36;115.85;;;37.85;;
75718;SDS011;64340;48.534;-3.036;2023-08-21T13:29:01;124.10;;;37.80;;
75718;SDS011;64340;48.534;-3.036;2023-08-21T13:31:27;124.57;;;37.75;;
75718;SDS011;64340;48.534;-3.036;2023-08-21T13:33:56;128.00;;;37.03;;
75718;SDS011;64340;48.534;-3.036;2023-08-21T13:36:22;128.88;;;37.15;;
75718;SDS011;64340;48.534;-3.036;2023-08-21T13:38:48;127.95;;;38.15;;
75718;SDS011;64340;48.534;-3.036;2023-08-21T13:41:13;130.68;;;36.03;;
75718;SDS011;64340;48.534;-3.036;2023-08-21T13:43:39;129.25;;;36.80;;
75718;SDS011;64340;48.534;-3.036;2023-08-21T13:46:05;125.90;;;36.63;;
75718;SDS011;64340;48.534;-3.036;2023-08-21T13:48:31;130.15;;;36.88;;
75718;SDS011;64340;48.534;-3.036;2023-08-21T13:50:57;129.98;;;36.70;;
75718;SDS011;64340;48.534;-3.036;2023-08-21T13:53:23;141.50;;;39.22;;
75718;SDS011;64340;48.534;-3.036;2023-08-21T13:55:49;146.48;;;36.08;;
75718;SDS011;64340;48.534;-3.036;2023-08-21T13:58:17;140.75;;;36.03;;
75718;SDS011;64340;48.534;-3.036;2023-08-21T14:00:43;146.45;;;35.95;;
75718;SDS011;64340;48.534;-3.036;2023-08-21T14:03:09;143.98;;;35.53;;
75718;SDS011;64340;48.534;-3.036;2023-08-21T14:05:35;145.23;;;35.83;;
75718;SDS011;64340;48.534;-3.036;2023-08-21T14:08:02;145.88;;;36.60;;
75718;SDS011;64340;48.534;-3.036;2023-08-21T14:10:28;148.68;;;35.97;;
75718;SDS011;64340;48.534;-3.036;2023-08-21T14:12:55;142.82;;;35.65;;
75718;SDS011;64340;48.534;-3.036;2023-08-21T14:15:22;147.38;;;36.10;;
75718;SDS011;64340;48.534;-3.036;2023-08-21T14:17:48;147.93;;;35.83;;
75718;SDS011;64340;48.534;-3.036;2023-08-21T14:20:15;146.38;;;35.75;;
75718;SDS011;64340;48.534;-3.036;2023-08-21T14:22:41;140.07;;;36.35;;
75718;SDS011;64340;48.534;-3.036;2023-08-21T14:25:07;146.82;;;35.67;;
75718;SDS011;64340;48.534;-3.036;2023-08-21T14:27:33;151.43;;;35.72;;
75718;SDS011;64340;48.534;-3.036;2023-08-21T14:29:59;151.60;;;35.60;;
75718;SDS011;64340;48.534;-3.036;2023-08-21T14:32:25;151.52;;;35.80;;
75718;SDS011;64340;48.534;-3.036;2023-08-21T14:34:51;151.57;;;36.30;;
75718;SDS011;64340;48.534;-3.036;2023-08-21T14:37:18;147.75;;;35.80;;
75718;SDS011;64340;48.534;-3.036;2023-08-21T14:39:46;149.32;;;35.50;;
75718;SDS011;64340;48.534;-3.036;2023-08-21T14:42:12;149.63;;;35.78;;
75718;SDS011;64340;48.534;-3.036;2023-08-21T14:44:38;152.40;;;35.20;;
75718;SDS011;64340;48.534;-3.036;2023-08-21T14:47:04;153.63;;;35.63;;
75718;SDS011;64340;48.534;-3.036;2023-08-21T14:49:30;144.35;;;35.65;;
75718;SDS011;64340;48.534;-3.036;2023-08-21T14:51:57;140.68;;;37.65;;
75718;SDS011;64340;48.534;-3.036;2023-08-21T14:54:23;151.50;;;36.58;;
75718;SDS011;64340;48.534;-3.036;2023-08-21T14:56:49;138.02;;;36.20;;
75718;SDS011;64340;48.534;-3.036;2023-08-21T14:59:16;143.23;;;36.20;;
75718;SDS011;64340;48.534;-3.036;2023-08-21T15:01:42;133.00;;;36.55;;
75718;SDS011;64340;48.534;-3.036;2023-08-21T15:04:07;136.52;;;36.35;;
75718;SDS011;64340;48.534;-3.036;2023-08-21T15:06:34;129.00;;;37.50;;
75718;SDS011;64340;48.534;-3.036;2023-08-21T15:09:00;150.63;;;40.10;;
75718;SDS011;64340;48.534;-3.036;2023-08-21T15:11:26;144.98;;;35.97;;
75718;SDS011;64340;48.534;-3.036;2023-08-21T15:13:51;150.32;;;36.00;;
75718;SDS011;64340;48.534;-3.036;2023-08-21T15:16:17;135.90;;;35.88;;
75718;SDS011;64340;48.534;-3.036;2023-08-21T15:18:43;146.68;;;36.40;;
75718;SDS011;64340;48.534;-3.036;2023-08-21T15:21:11;132.88;;;36.15;;
75718;SDS011;64340;48.534;-3.036;2023-08-21T15:23:37;126.25;;;37.10;;
75718;SDS011;64340;48.534;-3.036;2023-08-21T15:26:02;145.88;;;35.65;;
75718;SDS011;64340;48.534;-3.036;2023-08-21T15:28:28;143.02;;;35.97;;
75718;SDS011;64340;48.534;-3.036;2023-08-21T15:30:54;140.82;;;36.65;;
75718;SDS011;64340;48.534;-3.036;2023-08-21T15:33:20;146.38;;;36.67;;
75718;SDS011;64340;48.534;-3.036;2023-08-21T15:35:46;133.65;;;36.63;;
75718;SDS011;64340;48.534;-3.036;2023-08-21T15:38:11;146.32;;;36.53;;
75718;SDS011;64340;48.534;-3.036;2023-08-21T15:40:37;154.15;;;34.92;;
75718;SDS011;64340;48.534;-3.036;2023-08-21T15:43:03;150.90;;;35.35;;
75718;SDS011;64340;48.534;-3.036;2023-08-21T15:45:30;140.55;;;35.67;;
75718;SDS011;64340;48.534;-3.036;2023-08-21T15:47:56;138.45;;;36.03;;
75718;SDS011;64340;48.534;-3.036;2023-08-21T15:50:23;141.57;;;35.55;;
75718;SDS011;64340;48.534;-3.036;2023-08-21T15:52:48;131.50;;;37.25;;
75718;SDS011;64340;48.534;-3.036;2023-08-21T15:55:14;131.15;;;36.42;;
75718;SDS011;64340;48.534;-3.036;2023-08-21T15:57:40;134.32;;;36.15;;
75718;SDS011;64340;48.534;-3.036;2023-08-21T16:00:06;140.63;;;35.15;;
75718;SDS011;64340;48.534;-3.036;2023-08-21T16:02:33;141.20;;;35.40;;
75718;SDS011;64340;48.534;-3.036;2023-08-21T16:05:00;125.90;;;35.63;;
75718;SDS011;64340;48.534;-3.036;2023-08-21T16:07:25;151.73;;;36.20;;
75718;SDS011;64340;48.534;-3.036;2023-08-21T16:09:51;139.48;;;35.92;;
75718;SDS011;64340;48.534;-3.036;2023-08-21T16:12:17;149.23;;;35.38;;
75718;SDS011;64340;48.534;-3.036;2023-08-21T16:14:42;153.60;;;35.25;;
75718;SDS011;64340;48.534;-3.036;2023-08-21T16:17:08;146.40;;;35.78;;
75718;SDS011;64340;48.534;-3.036;2023-08-21T16:19:35;152.95;;;36.88;;
75718;SDS011;64340;48.534;-3.036;2023-08-21T16:22:01;122.07;;;38.78;;
75718;SDS011;64340;48.534;-3.036;2023-08-21T16:24:28;115.60;;;38.33;;
75718;SDS011;64340;48.534;-3.036;2023-08-21T16:26:55;163.80;;;34.85;;
75718;SDS011;64340;48.534;-3.036;2023-08-21T16:29:22;165.38;;;33.72;;
75718;SDS011;64340;48.534;-3.036;2023-08-21T16:31:48;125.78;;;37.83;;
75718;SDS011;64340;48.534;-3.036;2023-08-21T16:34:18;162.30;;;34.38;;
75718;SDS011;64340;48.534;-3.036;2023-08-21T16:36:45;136.65;;;36.67;;
75718;SDS011;64340;48.534;-3.036;2023-08-21T16:39:10;100.72;;;40.13;;
75718;SDS011;64340;48.534;-3.036;2023-08-21T16:41:36;102.28;;;40.38;;
75718;SDS011;64340;48.534;-3.036;2023-08-21T16:44:02;133.30;;;36.88;;
75718;SDS011;64340;48.534;-3.036;2023-08-21T16:46:29;101.65;;;40.35;;
75718;SDS011;64340;48.534;-3.036;2023-08-21T16:48:55;120.93;;;37.75;;
75718;SDS011;64340;48.534;-3.036;2023-08-21T16:51:21;137.55;;;35.97;;
75718;SDS011;64340;48.534;-3.036;2023-08-21T16:53:47;126.43;;;37.20;;
75718;SDS011;64340;48.534;-3.036;2023-08-21T16:56:13;119.60;;;37.20;;
75718;SDS011;64340;48.534;-3.036;2023-08-21T16:58:39;119.20;;;37.42;;
75718;SDS011;64340;48.534;-3.036;2023-08-21T17:01:05;110.70;;;37.97;;
75718;SDS011;64340;48.534;-3.036;2023-08-21T17:03:31;121.63;;;37.17;;
75718;SDS011;64340;48.534;-3.036;2023-08-21T17:05:57;113.85;;;37.78;;
75718;SDS011;64340;48.534;-3.036;2023-08-21T17:08:26;129.93;;;36.63;;
75718;SDS011;64340;48.534;-3.036;2023-08-21T17:10:51;123.35;;;37.20;;
75718;SDS011;64340;48.534;-3.036;2023-08-21T17:13:17;173.13;;;33.35;;
75718;SDS011;64340;48.534;-3.036;2023-08-21T17:15:44;115.05;;;38.58;;
75718;SDS011;64340;48.534;-3.036;2023-08-21T17:18:11;100.22;;;40.03;;
75718;SDS011;64340;48.534;-3.036;2023-08-21T17:20:36;134.55;;;37.55;;
75718;SDS011;64340;48.534;-3.036;2023-08-21T17:23:02;103.32;;;39.55;;
75718;SDS011;64340;48.534;-3.036;2023-08-21T17:25:28;105.97;;;40.05;;
75718;SDS011;64340;48.534;-3.036;2023-08-21T17:27:54;109.22;;;38.50;;
75718;SDS011;64340;48.534;-3.036;2023-08-21T17:30:20;108.97;;;38.50;;
75718;SDS011;64340;48.534;-3.036;2023-08-21T17:32:46;132.70;;;36.47;;
75718;SDS011;64340;48.534;-3.036;2023-08-21T17:35:12;152.38;;;34.53;;
75718;SDS011;64340;48.534;-3.036;2023-08-21T17:37:38;132.98;;;36.25;;
75718;SDS011;64340;48.534;-3.036;2023-08-21T17:40:04;137.23;;;36.58;;
75718;SDS011;64340;48.534;-3.036;2023-08-21T17:42:32;139.35;;;36.58;;
75718;SDS011;64340;48.534;-3.036;2023-08-21T17:44:58;139.18;;;36.90;;
75718;SDS011;64340;48.534;-3.036;2023-08-21T17:47:23;129.38;;;36.53;;
75718;SDS011;64340;48.534;-3.036;2023-08-21T17:49:49;154.60;;;35.08;;
75718;SDS011;64340;48.534;-3.036;2023-08-21T17:52:15;128.95;;;36.17;;
75718;SDS011;64340;48.534;-3.036;2023-08-21T17:54:41;147.57;;;34.72;;
75718;SDS011;64340;48.534;-3.036;2023-08-21T17:57:07;150.73;;;34.50;;
75718;SDS011;64340;48.534;-3.036;2023-08-21T17:59:33;175.47;;;32.93;;
75718;SDS011;64340;48.534;-3.036;2023-08-21T18:01:58;116.25;;;37.95;;
75718;SDS011;64340;48.534;-3.036;2023-08-21T18:04:25;130.32;;;35.17;;
75718;SDS011;64340;48.534;-3.036;2023-08-21T18:06:51;138.07;;;35.63;;
75718;SDS011;64340;48.534;-3.036;2023-08-21T18:09:17;141.25;;;36.00;;
75718;SDS011;64340;48.534;-3.036;2023-08-21T18:11:43;138.25;;;39.72;;
75718;SDS011;64340;48.534;-3.036;2023-08-21T18:14:10;136.27;;;38.67;;
75718;SDS011;64340;48.534;-3.036;2023-08-21T18:16:39;131.20;;;37.53;;
75718;SDS011;64340;48.534;-3.036;2023-08-21T18:19:06;138.30;;;35.40;;
75718;SDS011;64340;48.534;-3.036;2023-08-21T18:21:33;125.03;;;36.65;;
75718;SDS011;64340;48.534;-3.036;2023-08-21T18:23:58;138.40;;;37.65;;
75718;SDS011;64340;48.534;-3.036;2023-08-21T18:26:24;113.88;;;37.95;;
75718;SDS011;64340;48.534;-3.036;2023-08-21T18:28:50;123.28;;;39.15;;
75718;SDS011;64340;48.534;-3.036;2023-08-21T18:31:16;131.88;;;38.03;;
75718;SDS011;64340;48.534;-3.036;2023-08-21T18:33:42;107.50;;;39.33;;
75718;SDS011;64340;48.534;-3.036;2023-08-21T18:36:07;90.88;;;39.17;;
75718;SDS011;64340;48.534;-3.036;2023-08-21T18:38:33;99.90;;;38.20;;
75718;SDS011;64340;48.534;-3.036;2023-08-21T18:41:00;109.65;;;37.53;;
75718;SDS011;64340;48.534;-3.036;2023-08-21T18:43:26;106.30;;;38.10;;
75718;SDS011;64340;48.534;-3.036;2023-08-21T18:45:51;112.38;;;37.95;;
75718;SDS011;64340;48.534;-3.036;2023-08-21T18:48:18;107.90;;;37.47;;
75718;SDS011;64340;48.534;-3.036;2023-08-21T18:50:45;102.90;;;38.70;;
75718;SDS011;64340;48.534;-3.036;2023-08-21T18:53:11;93.78;;;39.65;;
75718;SDS011;64340;48.534;-3.036;2023-08-21T18:55:39;77.63;;;40.95;;
75718;SDS011;64340;48.534;-3.036;2023-08-21T18:58:06;81.43;;;40.70;;
75718;SDS011;64340;48.534;-3.036;2023-08-21T19:00:32;74.88;;;39.55;;
75718;SDS011;64340;48.534;-3.036;2023-08-21T19:02:59;70.18;;;42.13;;
75718;SDS011;64340;48.534;-3.036;2023-08-21T19:05:25;66.55;;;41.72;;
75718;SDS011;64340;48.534;-3.036;2023-08-21T19:07:51;66.55;;;41.83;;
75718;SDS011;64340;48.534;-3.036;2023-08-21T19:10:17;78.30;;;42.58;;
75718;SDS011;64340;48.534;-3.036;2023-08-21T19:12:44;79.07;;;39.88;;
75718;SDS011;64340;48.534;-3.036;2023-08-21T19:15:13;74.40;;;41.17;;
75718;SDS011;64340;48.534;-3.036;2023-08-21T19:17:41;73.03;;;39.47;;
75718;SDS011;64340;48.534;-3.036;2023-08-21T19:20:07;73.60;;;40.88;;
75718;SDS011;64340;48.534;-3.036;2023-08-21T19:22:34;71.47;;;40.67;;
75718;SDS011;64340;48.534;-3.036;2023-08-21T19:25:01;73.65;;;41.78;;
75718;SDS011;64340;48.534;-3.036;2023-08-21T19:27:28;69.53;;;41.60;;
75718;SDS011;64340;48.534;-3.036;2023-08-21T19:29:56;68.60;;;41.33;;
75718;SDS011;64340;48.534;-3.036;2023-08-21T19:32:23;63.88;;;42.25;;
75718;SDS011;64340;48.534;-3.036;2023-08-21T19:34:49;69.15;;;42.58;;
75718;SDS011;64340;48.534;-3.036;2023-08-21T19:37:15;73.30;;;41.85;;
75718;SDS011;64340;48.534;-3.036;2023-08-21T19:39:41;68.13;;;40.65;;
75718;SDS011;64340;48.534;-3.036;2023-08-21T19:42:08;65.75;;;42.05;;
75718;SDS011;64340;48.534;-3.036;2023-08-21T19:44:35;63.28;;;42.58;;
75718;SDS011;64340;48.534;-3.036;2023-08-21T19:47:01;69.57;;;41.95;;
75718;SDS011;64340;48.534;-3.036;2023-08-21T19:49:28;69.88;;;41.63;;
75718;SDS011;64340;48.534;-3.036;2023-08-21T19:51:56;67.88;;;41.72;;
75718;SDS011;64340;48.534;-3.036;2023-08-21T19:54:23;72.47;;;41.22;;
75718;SDS011;64340;48.534;-3.036;2023-08-21T19:56:52;70.63;;;42.15;;
75718;SDS011;64340;48.534;-3.036;2023-08-21T19:59:20;67.75;;;41.70;;
75718;SDS011;64340;48.534;-3.036;2023-08-21T20:01:49;69.00;;;42.03;;
75718;SDS011;64340;48.534;-3.036;2023-08-21T20:04:15;76.20;;;40.92;;
75718;SDS011;64340;48.534;-3.036;2023-08-21T20:06:42;75.00;;;40.85;;
75718;SDS011;64340;48.534;-3.036;2023-08-21T20:09:07;72.72;;;41.28;;
75718;SDS011;64340;48.534;-3.036;2023-08-21T20:11:35;69.70;;;41.28;;
75718;SDS011;64340;48.534;-3.036;2023-08-21T20:14:01;72.38;;;41.40;;
75718;SDS011;64340;48.534;-3.036;2023-08-21T20:16:28;66.97;;;41.33;;
75718;SDS011;64340;48.534;-3.036;2023-08-21T20:18:55;70.15;;;40.90;;
75718;SDS011;64340;48.534;-3.036;2023-08-21T20:21:23;72.90;;;40.50;;
75718;SDS011;64340;48.534;-3.036;2023-08-21T20:23:51;73.63;;;40.58;;
75718;SDS011;64340;48.534;-3.036;2023-08-21T20:26:17;70.97;;;41.03;;
75718;SDS011;64340;48.534;-3.036;2023-08-21T20:28:45;71.20;;;41.15;;
75718;SDS011;64340;48.534;-3.036;2023-08-21T20:31:11;73.53;;;41.33;;
75718;SDS011;64340;48.534;-3.036;2023-08-21T20:33:39;69.80;;;40.22;;
75718;SDS011;64340;48.534;-3.036;2023-08-21T20:36:07;67.10;;;40.80;;
75718;SDS011;64340;48.534;-3.036;2023-08-21T20:38:34;70.10;;;41.15;;
75718;SDS011;64340;48.534;-3.036;2023-08-21T20:41:05;65.72;;;40.03;;
75718;SDS011;64340;48.534;-3.036;2023-08-21T20:43:33;66.22;;;41.25;;
75718;SDS011;64340;48.534;-3.036;2023-08-21T20:46:03;68.00;;;40.17;;
75718;SDS011;64340;48.534;-3.036;2023-08-21T20:48:30;64.75;;;41.05;;
75718;SDS011;64340;48.534;-3.036;2023-08-21T20:50:58;68.80;;;40.78;;
75718;SDS011;64340;48.534;-3.036;2023-08-21T20:53:27;68.25;;;40.40;;
75718;SDS011;64340;48.534;-3.036;2023-08-21T20:58:20;65.78;;;40.17;;
75718;SDS011;64340;48.534;-3.036;2023-08-21T21:00:46;65.65;;;40.97;;
75718;SDS011;64340;48.534;-3.036;2023-08-21T21:03:12;68.35;;;40.63;;
75718;SDS011;64340;48.534;-3.036;2023-08-21T21:05:41;61.97;;;41.10;;
75718;SDS011;64340;48.534;-3.036;2023-08-21T21:08:07;62.88;;;41.08;;
75718;SDS011;64340;48.534;-3.036;2023-08-21T21:10:36;64.38;;;41.35;;
75718;SDS011;64340;48.534;-3.036;2023-08-21T21:13:03;60.53;;;41.08;;
75718;SDS011;64340;48.534;-3.036;2023-08-21T21:15:30;63.13;;;41.33;;
75718;SDS011;64340;48.534;-3.036;2023-08-21T21:17:56;66.07;;;40.72;;
75718;SDS011;64340;48.534;-3.036;2023-08-21T21:20:24;64.60;;;41.72;;
75718;SDS011;64340;48.534;-3.036;2023-08-21T21:22:50;65.57;;;40.72;;
75718;SDS011;64340;48.534;-3.036;2023-08-21T21:25:16;60.70;;;41.15;;
75718;SDS011;64340;48.534;-3.036;2023-08-21T21:27:44;65.95;;;41.20;;
75718;SDS011;64340;48.534;-3.036;2023-08-21T21:30:10;62.13;;;41.45;;
75718;SDS011;64340;48.534;-3.036;2023-08-21T21:32:37;62.70;;;41.38;;
75718;SDS011;64340;48.534;-3.036;2023-08-21T21:35:03;61.30;;;41.45;;
75718;SDS011;64340;48.534;-3.036;2023-08-21T21:37:29;58.70;;;41.08;;
75718;SDS011;64340;48.534;-3.036;2023-08-21T21:39:57;61.25;;;40.67;;
75718;SDS011;64340;48.534;-3.036;2023-08-21T21:42:24;61.42;;;41.17;;
75718;SDS011;64340;48.534;-3.036;2023-08-21T21:44:52;59.92;;;41.17;;
75718;SDS011;64340;48.534;-3.036;2023-08-21T21:47:18;64.05;;;40.63;;
75718;SDS011;64340;48.534;-3.036;2023-08-21T21:52:13;68.40;;;41.50;;
75718;SDS011;64340;48.534;-3.036;2023-08-21T21:54:40;65.97;;;41.47;;
75718;SDS011;64340;48.534;-3.036;2023-08-21T21:57:06;65.75;;;41.33;;
75718;SDS011;64340;48.534;-3.036;2023-08-21T21:59:33;67.70;;;41.00;;
75718;SDS011;64340;48.534;-3.036;2023-08-21T22:01:59;70.30;;;40.67;;
75718;SDS011;64340;48.534;-3.036;2023-08-21T22:04:25;63.25;;;41.92;;
75718;SDS011;64340;48.534;-3.036;2023-08-21T22:06:51;58.92;;;40.83;;
75718;SDS011;64340;48.534;-3.036;2023-08-21T22:09:17;63.40;;;40.92;;
75718;SDS011;64340;48.534;-3.036;2023-08-21T22:11:43;60.10;;;41.05;;
75718;SDS011;64340;48.534;-3.036;2023-08-21T22:14:09;63.55;;;41.40;;
75718;SDS011;64340;48.534;-3.036;2023-08-21T22:16:35;69.30;;;41.40;;
75718;SDS011;64340;48.534;-3.036;2023-08-21T22:19:01;64.07;;;40.80;;
75718;SDS011;64340;48.534;-3.036;2023-08-21T22:21:29;61.63;;;41.05;;
75718;SDS011;64340;48.534;-3.036;2023-08-21T22:23:56;60.65;;;40.38;;
75718;SDS011;64340;48.534;-3.036;2023-08-21T22:26:21;65.32;;;40.97;;
75718;SDS011;64340;48.534;-3.036;2023-08-21T22:28:47;61.45;;;41.10;;
75718;SDS011;64340;48.534;-3.036;2023-08-21T22:31:13;64.38;;;41.75;;
75718;SDS011;64340;48.534;-3.036;2023-08-21T22:33:39;63.78;;;40.67;;
75718;SDS011;64340;48.534;-3.036;2023-08-21T22:36:05;64.45;;;40.45;;
75718;SDS011;64340;48.534;-3.036;2023-08-21T22:38:33;61.35;;;40.50;;
75718;SDS011;64340;48.534;-3.036;2023-08-21T22:41:01;65.03;;;40.78;;
75718;SDS011;64340;48.534;-3.036;2023-08-21T22:43:29;64.00;;;40.63;;
75718;SDS011;64340;48.534;-3.036;2023-08-21T22:46:06;64.72;;;40.85;;
75718;SDS011;64340;48.534;-3.036;2023-08-21T22:48:35;63.30;;;39.35;;
75718;SDS011;64340;48.534;-3.036;2023-08-21T22:51:04;56.90;;;40.33;;
75718;SDS011;64340;48.534;-3.036;2023-08-21T22:55:59;59.25;;;40.88;;
75718;SDS011;64340;48.534;-3.036;2023-08-21T22:58:26;63.75;;;41.35;;
75718;SDS011;64340;48.534;-3.036;2023-08-21T23:00:52;61.17;;;39.67;;
75718;SDS011;64340;48.534;-3.036;2023-08-21T23:03:18;69.03;;;41.13;;
75718;SDS011;64340;48.534;-3.036;2023-08-21T23:05:50;54.22;;;38.53;;
75718;SDS011;64340;48.534;-3.036;2023-08-21T23:08:21;59.63;;;38.75;;
75718;SDS011;64340;48.534;-3.036;2023-08-21T23:10:48;57.00;;;38.10;;
75718;SDS011;64340;48.534;-3.036;2023-08-21T23:13:14;60.20;;;39.75;;
75718;SDS011;64340;48.534;-3.036;2023-08-21T23:15:44;63.90;;;41.13;;
75718;SDS011;64340;48.534;-3.036;2023-08-21T23:18:10;67.30;;;39.80;;
75718;SDS011;64340;48.534;-3.036;2023-08-21T23:20:37;72.25;;;41.05;;
75718;SDS011;64340;48.534;-3.036;2023-08-21T23:23:02;63.15;;;39.53;;
75718;SDS011;64340;48.534;-3.036;2023-08-21T23:25:28;63.50;;;39.63;;
75718;SDS011;64340;48.534;-3.036;2023-08-21T23:27:54;61.78;;;39.45;;
75718;SDS011;64340;48.534;-3.036;2023-08-21T23:30:21;56.83;;;39.10;;
75718;SDS011;64340;48.534;-3.036;2023-08-21T23:32:49;66.38;;;41.15;;
75718;SDS011;64340;48.534;-3.036;2023-08-21T23:35:16;61.92;;;39.72;;
75718;SDS011;64340;48.534;-3.036;2023-08-21T23:37:42;66.47;;;41.38;;
75718;SDS011;64340;48.534;-3.036;2023-08-21T23:40:08;69.40;;;41.35;;
75718;SDS011;64340;48.534;-3.036;2023-08-21T23:42:36;59.88;;;40.25;;
75718;SDS011;64340;48.534;-3.036;2023-08-21T23:45:02;61.47;;;39.92;;
75718;SDS011;64340;48.534;-3.036;2023-08-21T23:47:29;72.25;;;40.67;;
75718;SDS011;64340;48.534;-3.036;2023-08-21T23:49:55;57.65;;;40.13;;
75718;SDS011;64340;48.534;-3.036;2023-08-21T23:52:21;63.50;;;40.58;;
75718;SDS011;64340;48.534;-3.036;2023-08-21T23:54:46;62.97;;;42.03;;
75718;SDS011;64340;48.534;-3.036;2023-08-21T23:57:12;59.88;;;41.55;;
75718;SDS011;64340;48.534;-3.036;2023-08-21T23:59:38;55.13;;;41.13;;
